createdAt,value
2019-05-23T00:02:48.335Z,99.90
2019-05-23T00:05:41.293Z,99.90
2019-05-23T00:09:03.239Z,99.90
2019-05-23T00:15:29.101Z,99.90
2019-05-23T00:21:50.494Z,99.90
2019-05-23T00:24:52.953Z,99.90
2019-05-23T00:28:06.081Z,99.90
2019-05-23T00:31:07.096Z,99.90
2019-05-23T00:39:37.638Z,99.90
2019-05-23T00:42:41.612Z,99.90
2019-05-23T00:45:36.438Z,99.90
2019-05-23T00:48:26.379Z,99.90
2019-05-23T00:51:04.992Z,99.90
2019-05-23T00:53:58.506Z,99.90
2019-05-23T00:56:40.486Z,99.90
2019-05-23T00:59:28.019Z,99.90
2019-05-23T01:02:33.401Z,99.90
2019-05-23T01:05:14.726Z,99.90
2019-05-23T01:07:43.957Z,99.90
2019-05-23T01:10:40.043Z,99.90
2019-05-23T01:13:36.639Z,99.90
2019-05-23T01:19:15.856Z,99.90
2019-05-23T01:24:57.904Z,99.90
2019-05-23T01:31:09.323Z,99.90
2019-05-23T01:45:54.578Z,99.90
2019-05-23T01:49:08.687Z,99.90
2019-05-23T01:58:03.748Z,99.90
2019-05-23T02:01:13.109Z,99.90
2019-05-23T02:06:41.070Z,99.90
2019-05-23T02:09:32.732Z,99.90
2019-05-23T02:12:33.668Z,99.90
2019-05-23T02:18:36.961Z,99.90
2019-05-23T02:23:40.166Z,99.90
2019-05-23T02:25:48.705Z,99.90
2019-05-23T02:27:59.476Z,99.90
2019-05-23T02:30:34.189Z,99.90
2019-05-23T02:32:30.864Z,99.90
2019-05-23T02:35:23.128Z,99.90
2019-05-23T02:41:48.014Z,99.90
2019-05-23T02:44:46.857Z,99.90
2019-05-23T02:47:44.084Z,99.90
2019-05-23T02:50:57.873Z,99.90
2019-05-23T02:54:00.966Z,99.90
2019-05-23T02:56:49.503Z,99.90
2019-05-23T03:03:22.848Z,99.90
2019-05-23T03:05:29.440Z,99.90
2019-05-23T03:07:35.393Z,99.90
2019-05-23T03:09:43.259Z,99.90
2019-05-23T03:11:49.025Z,99.90
2019-05-23T03:13:55.880Z,99.90
2019-05-23T03:16:00.351Z,99.90
2019-05-23T03:18:07.448Z,99.90
2019-05-23T03:21:20.185Z,99.90
2019-05-23T03:23:57.389Z,99.90
2019-05-23T03:27:02.676Z,99.90
2019-05-23T03:29:43.159Z,99.90
2019-05-23T03:33:29.634Z,99.90
2019-05-23T03:35:58.514Z,99.90
2019-05-23T03:41:33.408Z,99.90
2019-05-23T03:44:28.307Z,99.90
2019-05-23T03:47:24.671Z,99.90
2019-05-23T03:50:05.347Z,99.90
2019-05-23T03:53:08.430Z,99.90
2019-05-23T03:59:50.863Z,99.90
2019-05-23T04:13:58.671Z,99.90
2019-05-23T04:16:37.992Z,99.90
2019-05-23T04:19:40.774Z,99.90
2019-05-23T04:22:21.475Z,99.90
2019-05-23T04:28:27.569Z,99.90
2019-05-23T04:31:24.890Z,99.90
2019-05-23T04:34:20.595Z,99.90
2019-05-23T04:40:04.273Z,99.90
2019-05-23T04:43:08.574Z,99.90
2019-05-23T04:49:14.876Z,99.90
2019-05-23T04:54:12.821Z,99.90
2019-05-23T05:03:01.468Z,99.90
2019-05-23T05:05:57.194Z,99.90
2019-05-23T05:08:23.577Z,99.90
2019-05-23T05:14:14.779Z,99.90
2019-05-23T05:20:39.493Z,99.90
2019-05-23T05:32:10.245Z,99.90
2019-05-23T05:54:21.720Z,79.50
2019-05-23T05:56:45.954Z,75.90
2019-05-23T06:00:03.172Z,73.10
2019-05-23T06:09:22.655Z,69.40
2019-05-23T06:12:09.349Z,69.40
2019-05-23T06:18:18.087Z,68.20
2019-05-23T06:21:02.528Z,70.10
2019-05-23T06:23:36.308Z,70.30
2019-05-23T06:26:02.420Z,69.80
2019-05-23T06:28:39.255Z,70.30
2019-05-23T06:31:17.326Z,70.10
2019-05-23T06:36:59.478Z,71.00
2019-05-23T06:39:25.355Z,69.50
2019-05-23T06:42:07.546Z,70.60
2019-05-23T06:45:40.354Z,71.80
2019-05-23T06:47:24.473Z,71.90
2019-05-23T06:49:56.585Z,73.10
2019-05-23T06:52:24.523Z,74.30
2019-05-23T06:55:13.790Z,76.20
2019-05-23T06:57:48.063Z,77.40
2019-05-23T07:00:32.880Z,78.10
2019-05-23T07:06:07.046Z,81.30
2019-05-23T07:08:38.763Z,82.40
2019-05-23T07:11:25.191Z,82.70
2019-05-23T07:14:26.784Z,84.20
2019-05-23T09:08:47.228Z,64.30
2019-05-23T09:11:05.242Z,63.30
2019-05-23T09:13:20.738Z,62.90
2019-05-23T09:15:42.807Z,60.50
2019-05-23T09:18:10.000Z,60.70
2019-05-23T09:20:41.141Z,60.90
2019-05-23T09:26:10.021Z,58.60
2019-05-23T09:28:27.922Z,58.60
2019-05-23T09:31:17.671Z,58.10
2019-05-23T09:33:41.908Z,58.00
2019-05-23T09:36:07.026Z,58.20
2019-05-23T09:38:44.789Z,57.20
2019-05-23T09:41:37.141Z,56.70
2019-05-23T09:44:15.932Z,56.60
2019-05-23T09:47:01.925Z,54.70
2019-05-23T09:49:38.397Z,53.50
2019-05-23T09:52:14.426Z,53.80
2019-05-23T09:54:44.349Z,55.50
2019-05-23T10:30:50.654Z,50.10
2019-05-23T10:33:36.761Z,50.00
2019-05-23T10:36:01.746Z,50.40
2019-05-23T10:41:09.664Z,48.60
2019-05-23T10:45:57.330Z,49.10
2019-05-23T10:48:31.785Z,48.50
2019-05-23T10:53:46.241Z,48.30
2019-05-23T10:56:21.886Z,48.20
2019-05-23T10:58:52.883Z,47.90
2019-05-23T11:01:26.240Z,46.20
2019-05-23T11:03:41.248Z,45.20
2019-05-23T11:06:16.605Z,45.50
2019-05-23T11:08:32.942Z,46.00
2019-05-23T11:11:06.029Z,46.60
2019-05-23T11:13:39.819Z,46.00
2019-05-23T11:15:56.803Z,45.60
2019-05-23T11:18:37.439Z,45.80
2019-05-23T11:24:54.759Z,45.70
2019-05-23T11:27:47.195Z,45.40
2019-05-23T11:30:29.435Z,46.60
2019-05-23T11:33:13.496Z,45.40
2019-05-23T11:36:00.230Z,44.80
2019-05-23T11:39:08.354Z,45.10
2019-05-23T11:41:55.958Z,44.40
2019-05-23T11:45:31.759Z,44.00
2019-05-23T11:47:39.346Z,44.60
2019-05-23T11:53:01.827Z,43.30
2019-05-23T11:55:27.747Z,43.00
2019-05-23T11:58:05.830Z,42.90
2019-05-23T12:01:04.808Z,42.30
2019-05-23T12:03:36.259Z,42.60
2019-05-23T12:09:11.047Z,40.60
2019-05-23T12:14:19.208Z,40.50
2019-05-23T12:17:05.066Z,40.50
2019-05-23T12:19:24.345Z,40.30
2019-05-23T12:21:41.266Z,40.10
2019-05-23T12:24:24.079Z,39.50
2019-05-23T12:26:34.471Z,39.50
2019-05-23T12:28:48.161Z,39.60
2019-05-23T12:31:17.980Z,38.90
2019-05-23T12:33:37.542Z,39.90
2019-05-23T12:35:55.207Z,39.70
2019-05-23T12:49:36.217Z,39.90
2019-05-23T13:26:22.622Z,37.40
2019-05-23T13:28:34.701Z,35.30
2019-05-23T13:43:29.221Z,35.30
2019-05-23T13:45:33.889Z,35.20
2019-05-23T13:47:41.107Z,35.10
2019-05-23T13:49:50.679Z,34.90
2019-05-23T13:51:58.619Z,34.90
2019-05-23T13:54:05.272Z,34.70
2019-05-23T13:56:12.394Z,34.90
2019-05-23T13:58:20.407Z,34.50
2019-05-23T14:00:30.377Z,34.40
2019-05-23T14:02:36.218Z,34.00
2019-05-23T14:04:52.468Z,35.00
2019-05-23T14:09:00.481Z,35.80
2019-05-23T14:11:08.488Z,35.10
2019-05-23T14:13:12.524Z,34.20
2019-05-23T14:15:19.441Z,34.70
2019-05-23T14:17:52.131Z,34.80
2019-05-23T14:20:04.338Z,35.00
2019-05-23T15:01:44.053Z,34.30
2019-05-23T15:03:54.123Z,33.80
2019-05-23T15:06:12.771Z,32.50
2019-05-23T15:08:23.383Z,32.80
2019-05-23T15:10:32.097Z,33.00
2019-05-23T15:12:41.468Z,32.50
2019-05-23T21:16:08.832Z,59.50
2019-05-23T23:59:53.743Z,99.90
